createdAt,value
2018-09-28T00:00:26.089Z,12.60
2018-09-28T00:02:54.866Z,12.60
2018-09-28T00:05:23.635Z,12.50
2018-09-28T00:07:52.288Z,12.50
2018-09-28T00:10:20.946Z,12.50
2018-09-28T00:12:50.684Z,12.50
2018-09-28T00:15:20.187Z,12.40
2018-09-28T00:17:48.906Z,12.40
2018-09-28T00:20:17.858Z,12.40
2018-09-28T00:22:46.560Z,12.30
2018-09-28T00:25:16.876Z,12.30
2018-09-28T00:27:45.644Z,12.20
2018-09-28T00:30:14.473Z,14.00
2018-09-28T00:32:43.244Z,12.20
2018-09-28T00:35:11.990Z,12.20
2018-09-28T00:37:40.777Z,13.10
2018-09-28T00:40:09.636Z,12.20
2018-09-28T00:42:39.442Z,12.20
2018-09-28T00:45:08.204Z,12.10
2018-09-28T00:47:36.984Z,12.10
2018-09-28T00:50:05.792Z,12.30
2018-09-28T00:52:34.632Z,12.10
2018-09-28T00:55:03.725Z,12.00
2018-09-28T00:57:32.508Z,11.70
2018-09-28T01:00:01.176Z,11.70
2018-09-28T01:02:29.899Z,11.30
2018-09-28T01:04:58.693Z,11.40
2018-09-28T01:07:27.378Z,11.60
2018-09-28T01:09:56.036Z,11.80
2018-09-28T01:12:24.772Z,11.90
2018-09-28T01:14:53.473Z,11.90
2018-09-28T01:17:22.083Z,11.80
2018-09-28T01:19:50.899Z,11.80
2018-09-28T01:22:19.576Z,11.80
2018-09-28T01:24:48.184Z,11.70
2018-09-28T01:27:16.934Z,11.80
2018-09-28T01:29:45.710Z,11.80
2018-09-28T01:32:14.568Z,11.70
2018-09-28T01:34:43.357Z,11.70
2018-09-28T01:37:12.051Z,11.70
2018-09-28T01:39:40.809Z,11.70
2018-09-28T01:42:09.592Z,11.60
2018-09-28T01:44:38.220Z,10.00
2018-09-28T01:47:06.892Z,11.50
2018-09-28T01:49:35.590Z,11.50
2018-09-28T01:52:04.636Z,11.50
2018-09-28T01:54:34.579Z,11.50
2018-09-28T01:57:03.308Z,11.50
2018-09-28T01:59:31.984Z,11.40
2018-09-28T02:02:00.765Z,11.40
2018-09-28T02:04:29.545Z,11.40
2018-09-28T02:06:58.343Z,11.30
2018-09-28T02:09:27.026Z,11.30
2018-09-28T02:11:55.794Z,11.30
2018-09-28T02:14:24.478Z,11.30
2018-09-28T02:16:53.136Z,9.80
2018-09-28T02:19:21.827Z,11.30
2018-09-28T02:21:50.541Z,11.20
2018-09-28T02:24:19.511Z,11.10
2018-09-28T02:26:48.119Z,11.10
2018-09-28T02:29:17.175Z,11.20
2018-09-28T02:31:45.918Z,11.20
2018-09-28T02:34:14.732Z,11.20
2018-09-28T02:36:43.506Z,11.10
2018-09-28T02:39:12.250Z,11.10
2018-09-28T02:41:41.004Z,11.00
2018-09-28T02:44:09.736Z,11.00
2018-09-28T02:46:38.371Z,10.90
2018-09-28T02:49:07.122Z,12.30
2018-09-28T02:51:35.944Z,10.90
2018-09-28T02:54:04.646Z,10.90
2018-09-28T02:56:33.259Z,10.90
2018-09-28T02:59:02.205Z,10.90
2018-09-28T03:01:30.864Z,10.80
2018-09-28T03:03:59.482Z,10.80
2018-09-28T03:06:28.312Z,10.80
2018-09-28T03:08:56.938Z,10.80
2018-09-28T03:11:25.643Z,10.80
2018-09-28T03:13:54.382Z,10.80
2018-09-28T03:16:23.081Z,10.80
2018-09-28T03:18:51.678Z,10.70
2018-09-28T03:21:20.364Z,10.70
2018-09-28T03:23:50.316Z,10.70
2018-09-28T03:26:18.890Z,10.70
2018-09-28T03:28:49.591Z,10.70
2018-09-28T03:31:18.201Z,10.70
2018-09-28T03:33:48.242Z,10.70
2018-09-28T03:36:17.620Z,10.60
2018-09-28T03:38:49.247Z,10.60
2018-09-28T03:41:17.886Z,10.70
2018-09-28T03:43:46.597Z,10.70
2018-09-28T03:46:15.200Z,10.60
2018-09-28T03:48:43.992Z,10.60
2018-09-28T03:51:13.043Z,10.60
2018-09-28T03:53:44.320Z,10.60
2018-09-28T03:56:13.069Z,10.50
2018-09-28T03:58:41.796Z,11.30
2018-09-28T04:01:10.633Z,10.50
2018-09-28T04:03:39.403Z,10.50
2018-09-28T04:06:08.061Z,10.50
2018-09-28T04:08:36.884Z,10.50
2018-09-28T04:11:05.690Z,10.30
2018-09-28T04:13:38.251Z,10.30
2018-09-28T04:16:06.835Z,10.20
2018-09-28T04:18:35.634Z,10.40
2018-09-28T04:21:04.574Z,10.20
2018-09-28T04:23:33.222Z,10.20
2018-09-28T04:26:02.098Z,10.20
2018-09-28T04:28:30.807Z,10.20
2018-09-28T04:30:59.527Z,10.20
2018-09-28T04:33:28.192Z,10.20
2018-09-28T04:35:58.490Z,10.30
2018-09-28T04:38:27.274Z,10.20
2018-09-28T04:40:56.052Z,9.10
2018-09-28T04:43:24.983Z,10.20
2018-09-28T04:45:53.766Z,10.10
2018-09-28T04:48:22.873Z,10.10
2018-09-28T04:50:51.570Z,10.10
2018-09-28T04:53:21.607Z,10.00
2018-09-28T04:55:50.254Z,10.00
2018-09-28T04:58:20.177Z,8.80
2018-09-28T05:00:48.776Z,10.00
2018-09-28T05:03:17.640Z,10.00
2018-09-28T05:05:46.336Z,9.90
2018-09-28T05:08:16.225Z,10.00
2018-09-28T05:10:45.044Z,10.00
2018-09-28T05:13:14.357Z,10.10
2018-09-28T05:15:43.274Z,10.10
2018-09-28T05:18:11.877Z,10.10
2018-09-28T05:20:40.626Z,10.10
2018-09-28T05:23:09.420Z,10.20
2018-09-28T05:25:38.172Z,10.30
2018-09-28T05:28:06.950Z,10.30
2018-09-28T05:30:35.654Z,10.30
2018-09-28T05:33:06.424Z,10.40
2018-09-28T05:35:35.128Z,10.40
2018-09-28T05:38:03.843Z,10.50
2018-09-28T05:40:32.624Z,10.50
2018-09-28T05:43:02.287Z,10.50
2018-09-28T05:45:30.895Z,10.50
2018-09-28T05:47:59.509Z,9.70
2018-09-28T05:50:28.368Z,10.40
2018-09-28T05:52:57.037Z,10.40
2018-09-28T05:55:26.337Z,10.40
2018-09-28T06:00:02.807Z,10.40
2018-09-28T06:02:36.776Z,10.40
2018-09-28T06:05:10.642Z,10.40
2018-09-28T06:07:39.467Z,10.40
2018-09-28T06:10:08.128Z,10.40
2018-09-28T06:12:38.468Z,10.50
2018-09-28T06:15:07.150Z,10.50
2018-09-28T06:17:35.880Z,10.50
2018-09-28T06:20:04.927Z,10.50
2018-09-28T06:22:33.679Z,10.60
2018-09-28T06:25:05.685Z,10.60
2018-09-28T06:27:34.341Z,10.60
2018-09-28T06:30:02.963Z,10.60
2018-09-28T06:32:32.451Z,10.70
2018-09-28T06:35:01.114Z,10.80
2018-09-28T06:37:30.043Z,10.80
2018-09-28T06:40:02.487Z,11.00
2018-09-28T06:42:38.050Z,11.00
2018-09-28T06:45:07.059Z,11.00
2018-09-28T06:47:35.787Z,11.00
2018-09-28T06:50:04.599Z,11.10
2018-09-28T06:52:33.515Z,11.10
2018-09-28T06:55:02.775Z,11.20
2018-09-28T06:57:31.504Z,11.30
2018-09-28T07:00:00.401Z,11.40
2018-09-28T07:02:28.950Z,11.50
2018-09-28T07:04:57.641Z,11.40
2018-09-28T07:07:26.308Z,11.40
2018-09-28T07:09:56.201Z,11.50
2018-09-28T07:12:25.083Z,11.50
2018-09-28T07:15:00.346Z,11.50
2018-09-28T07:17:29.379Z,11.60
2018-09-28T07:20:02.148Z,11.70
2018-09-28T07:22:30.921Z,11.80
2018-09-28T07:24:59.764Z,9.70
2018-09-28T07:27:28.383Z,11.90
2018-09-28T07:29:57.601Z,12.00
2018-09-28T07:32:26.322Z,12.10
2018-09-28T07:34:55.027Z,12.20
2018-09-28T07:37:26.224Z,12.30
2018-09-28T07:39:55.081Z,12.40
2018-09-28T07:42:24.276Z,12.40
2018-09-28T07:45:02.061Z,12.60
2018-09-28T07:47:32.001Z,12.70
2018-09-28T07:50:00.731Z,12.90
2018-09-28T07:52:30.934Z,13.20
2018-09-28T07:55:01.155Z,13.30
2018-09-28T07:57:30.015Z,13.40
2018-09-28T07:59:58.859Z,13.50
2018-09-28T08:02:27.675Z,13.70
2018-09-28T08:05:06.089Z,13.80
2018-09-28T08:07:37.059Z,13.90
2018-09-28T08:10:06.039Z,14.00
2018-09-28T08:12:34.813Z,14.10
2018-09-28T08:15:03.844Z,14.30
2018-09-28T08:17:32.767Z,14.50
2018-09-28T08:20:02.844Z,14.80
2018-09-28T08:22:31.576Z,14.90
2018-09-28T08:25:00.277Z,15.00
2018-09-28T08:27:29.102Z,15.10
2018-09-28T08:29:57.835Z,15.20
2018-09-28T08:32:26.543Z,14.60
2018-09-28T08:34:55.639Z,15.40
2018-09-28T08:37:24.521Z,15.50
2018-09-28T08:39:53.228Z,15.70
2018-09-28T08:42:21.893Z,15.80
2018-09-28T08:44:50.670Z,15.90
2018-09-28T08:47:19.470Z,16.20
2018-09-28T08:49:48.130Z,16.20
2018-09-28T08:52:16.838Z,16.30
2018-09-28T08:54:45.526Z,16.40
2018-09-28T08:57:14.288Z,16.40
2018-09-28T08:59:43.034Z,16.40
2018-09-28T09:02:11.853Z,16.50
2018-09-28T09:04:40.815Z,16.70
2018-09-28T09:07:09.601Z,16.70
2018-09-28T09:09:38.391Z,16.70
2018-09-28T09:12:07.188Z,16.80
2018-09-28T09:14:35.976Z,16.90
2018-09-28T09:17:04.874Z,17.00
2018-09-28T09:19:33.663Z,17.10
2018-09-28T09:22:02.449Z,17.10
2018-09-28T09:24:31.214Z,17.10
2018-09-28T09:27:00.001Z,17.00
2018-09-28T09:29:28.752Z,17.10
2018-09-28T09:31:59.925Z,17.10
2018-09-28T09:34:28.662Z,17.00
2018-09-28T09:37:05.767Z,17.00
2018-09-28T09:39:35.677Z,17.10
2018-09-28T09:42:04.409Z,17.20
2018-09-28T09:44:33.215Z,17.30
2018-09-28T09:47:02.009Z,17.40
2018-09-28T09:49:30.956Z,17.10
2018-09-28T09:52:00.008Z,17.50
2018-09-28T09:54:28.730Z,17.70
2018-09-28T09:56:57.535Z,17.80
2018-09-28T09:59:27.171Z,18.00
2018-09-28T10:02:09.521Z,18.20
2018-09-28T10:04:39.431Z,18.30
2018-09-28T10:07:10.545Z,18.40
2018-09-28T10:09:39.575Z,18.50
2018-09-28T10:12:10.112Z,18.60
2018-09-28T10:14:38.933Z,18.80
2018-09-28T10:17:07.665Z,19.60
2018-09-28T10:19:36.335Z,20.50
2018-09-28T10:22:05.050Z,19.60
2018-09-28T10:24:35.184Z,21.60
2018-09-28T10:27:19.764Z,22.10
2018-09-28T10:29:55.555Z,22.20
2018-09-28T10:32:24.309Z,22.40
2018-09-28T10:34:53.144Z,22.90
2018-09-28T10:37:22.210Z,21.40
2018-09-28T10:39:51.694Z,22.80
2018-09-28T10:42:20.271Z,22.70
2018-09-28T10:44:48.959Z,22.60
2018-09-28T10:47:18.489Z,22.90
2018-09-28T10:49:47.127Z,23.10
2018-09-28T10:52:16.146Z,23.40
2018-09-28T10:54:44.712Z,23.80
2018-09-28T10:58:44.547Z,24.10
2018-09-28T11:01:13.240Z,24.40
2018-09-28T11:03:42.011Z,24.10
2018-09-28T11:06:10.915Z,24.40
2018-09-28T11:08:40.291Z,24.50
2018-09-28T11:11:09.298Z,24.80
2018-09-28T11:13:37.938Z,25.20
2018-09-28T11:16:13.143Z,25.10
2018-09-28T11:18:41.907Z,25.30
2018-09-28T11:21:13.668Z,25.70
2018-09-28T11:23:43.892Z,26.30
2018-09-28T11:26:12.767Z,25.80
2018-09-28T11:28:42.462Z,25.60
2018-09-28T11:31:11.016Z,25.90
2018-09-28T11:33:39.697Z,25.70
2018-09-28T11:36:09.109Z,25.40
2018-09-28T11:38:37.895Z,25.60
2018-09-28T11:41:06.598Z,26.00
2018-09-28T11:43:35.285Z,26.10
2018-09-28T11:46:04.005Z,26.10
2018-09-28T11:48:33.062Z,26.30
2018-09-28T11:51:01.906Z,26.20
2018-09-28T11:53:31.377Z,26.10
2018-09-28T11:56:00.067Z,26.50
2018-09-28T11:58:29.621Z,26.90
2018-09-28T12:00:58.524Z,27.40
2018-09-28T12:03:27.640Z,27.30
2018-09-28T12:05:56.314Z,27.70
2018-09-28T12:08:25.390Z,27.80
2018-09-28T12:10:55.719Z,28.30
2018-09-28T12:13:24.350Z,28.50
2018-09-28T12:15:53.065Z,28.60
2018-09-28T12:18:22.040Z,28.50
2018-09-28T12:20:51.561Z,28.30
2018-09-28T12:23:20.163Z,28.10
2018-09-28T12:25:49.142Z,28.10
2018-09-28T12:28:17.839Z,28.50
2018-09-28T12:30:46.620Z,29.20
2018-09-28T12:33:15.423Z,29.70
2018-09-28T12:35:44.079Z,29.60
2018-09-28T12:38:12.988Z,29.50
2018-09-28T12:40:42.440Z,29.70
2018-09-28T12:43:11.067Z,30.10
2018-09-28T12:45:39.935Z,30.30
2018-09-28T12:48:09.774Z,30.20
2018-09-28T12:50:39.074Z,30.30
2018-09-28T12:53:07.753Z,29.70
2018-09-28T12:55:36.531Z,29.10
2018-09-28T12:58:05.307Z,29.00
2018-09-28T13:00:34.017Z,29.30
2018-09-28T13:03:02.750Z,29.20
2018-09-28T13:05:31.476Z,29.20
2018-09-28T13:08:06.155Z,29.20
2018-09-28T13:10:35.630Z,29.40
2018-09-28T13:13:04.389Z,30.60
2018-09-28T13:15:33.225Z,29.40
2018-09-28T13:18:02.071Z,29.30
2018-09-28T13:20:30.793Z,29.70
2018-09-28T13:22:59.450Z,29.60
2018-09-28T13:25:28.040Z,29.00
2018-09-28T13:27:56.890Z,26.80
2018-09-28T13:30:26.967Z,26.90
2018-09-28T13:32:55.664Z,26.00
2018-09-28T13:35:24.359Z,25.50
2018-09-28T13:37:53.278Z,25.00
2018-09-28T13:40:22.225Z,24.60
2018-09-28T13:42:51.827Z,24.50
2018-09-28T13:45:20.487Z,24.40
2018-09-28T13:47:49.214Z,24.40
2018-09-28T13:50:17.935Z,24.20
2018-09-28T13:52:46.826Z,24.10
2018-09-28T13:55:21.400Z,23.90
2018-09-28T13:57:50.154Z,23.80
2018-09-28T14:00:18.886Z,25.00
2018-09-28T14:02:48.440Z,23.50
2018-09-28T14:05:17.120Z,23.50
2018-09-28T14:07:45.880Z,23.40
2018-09-28T14:10:14.587Z,23.50
2018-09-28T14:12:43.418Z,22.10
2018-09-28T14:15:12.074Z,23.50
2018-09-28T14:17:40.875Z,23.50
2018-09-28T14:20:09.786Z,23.30
2018-09-28T14:22:38.606Z,23.20
2018-09-28T14:25:12.505Z,23.30
2018-09-28T14:27:55.641Z,23.20
2018-09-28T14:30:24.476Z,23.20
2018-09-28T14:32:53.375Z,23.00
2018-09-28T14:35:22.263Z,20.90
2018-09-28T14:37:51.139Z,22.80
2018-09-28T14:40:19.900Z,22.80
2018-09-28T14:42:48.759Z,22.70
2018-09-28T14:45:17.615Z,22.60
2018-09-28T14:47:46.371Z,21.10
2018-09-28T14:50:17.501Z,22.50
2018-09-28T14:52:46.377Z,22.40
2018-09-28T14:55:14.987Z,22.30
2018-09-28T14:57:44.062Z,24.30
2018-09-28T15:00:12.990Z,22.30
2018-09-28T15:02:42.164Z,22.40
2018-09-28T15:05:10.832Z,22.30
2018-09-28T15:07:39.705Z,22.30
2018-09-28T15:10:08.522Z,22.30
2018-09-28T15:12:37.313Z,22.30
2018-09-28T15:15:06.229Z,22.20
2018-09-28T15:17:35.059Z,22.20
2018-09-28T15:20:04.089Z,22.10
2018-09-28T15:22:32.965Z,21.80
2018-09-28T15:25:06.357Z,22.00
2018-09-28T15:27:40.305Z,21.90
2018-09-28T15:30:20.680Z,21.90
2018-09-28T15:33:00.558Z,21.90
2018-09-28T15:35:29.875Z,21.90
2018-09-28T15:37:59.944Z,21.80
2018-09-28T15:40:28.695Z,21.70
2018-09-28T15:42:58.242Z,21.70
2018-09-28T15:45:27.064Z,21.60
2018-09-28T15:47:55.753Z,21.50
2018-09-28T15:50:24.402Z,21.40
2018-09-28T15:52:53.990Z,21.30
2018-09-28T15:55:25.003Z,21.30
2018-09-28T15:57:53.682Z,21.30
2018-09-28T16:00:22.444Z,21.30
2018-09-28T16:02:51.075Z,21.30
2018-09-28T16:05:20.011Z,21.20
2018-09-28T16:07:48.729Z,21.30
2018-09-28T16:10:17.484Z,21.20
2018-09-28T16:12:46.278Z,21.20
2018-09-28T16:15:15.140Z,21.20
2018-09-28T16:17:44.076Z,21.10
2018-09-28T16:20:12.909Z,21.10
2018-09-28T16:22:41.596Z,21.00
2018-09-28T16:25:10.366Z,21.00
2018-09-28T16:27:39.201Z,20.70
2018-09-28T16:30:07.919Z,20.90
2018-09-28T16:32:36.618Z,20.80
2018-09-28T16:35:05.651Z,20.70
2018-09-28T16:37:34.335Z,20.60
2018-09-28T16:40:04.158Z,20.50
2018-09-28T16:42:32.933Z,20.10
2018-09-28T16:45:01.583Z,20.30
2018-09-28T16:47:31.109Z,20.20
2018-09-28T16:49:59.790Z,20.20
2018-09-28T16:52:28.411Z,20.10
2018-09-28T16:54:57.239Z,20.10
2018-09-28T16:57:26.093Z,20.00
2018-09-28T16:59:54.843Z,20.00
2018-09-28T17:02:23.562Z,18.80
2018-09-28T17:04:52.182Z,19.90
2018-09-28T17:07:20.838Z,19.90
2018-09-28T17:09:49.518Z,19.80
2018-09-28T17:12:18.186Z,19.80
2018-09-28T17:14:46.908Z,19.70
2018-09-28T17:17:15.672Z,19.60
2018-09-28T17:19:44.638Z,19.30
2018-09-28T17:22:13.359Z,19.60
2018-09-28T17:24:47.245Z,19.60
2018-09-28T17:27:23.479Z,19.60
2018-09-28T17:29:57.870Z,19.50
2018-09-28T17:32:26.702Z,19.50
2018-09-28T17:34:57.486Z,19.50
2018-09-28T17:37:26.185Z,19.60
2018-09-28T17:39:55.380Z,19.60
2018-09-28T17:42:24.149Z,19.60
2018-09-28T17:44:53.070Z,19.60
2018-09-28T17:47:21.888Z,19.60
2018-09-28T17:49:50.729Z,19.60
2018-09-28T17:52:19.441Z,19.60
2018-09-28T17:54:48.113Z,19.50
2018-09-28T17:57:16.789Z,19.50
2018-09-28T17:59:45.545Z,19.50
2018-09-28T18:02:14.371Z,17.50
2018-09-28T18:04:44.742Z,19.40
2018-09-28T18:07:13.439Z,19.40
2018-09-28T18:09:42.158Z,19.40
2018-09-28T18:12:10.979Z,19.40
2018-09-28T18:14:39.982Z,19.30
2018-09-28T18:17:10.486Z,19.30
2018-09-28T18:19:39.392Z,19.30
2018-09-28T18:22:08.081Z,17.00
2018-09-28T18:24:36.785Z,19.20
2018-09-28T18:27:06.370Z,19.20
2018-09-28T18:29:35.221Z,19.20
2018-09-28T18:32:03.903Z,19.10
2018-09-28T18:34:32.657Z,19.10
2018-09-28T18:37:01.489Z,19.00
2018-09-28T18:39:30.965Z,18.90
2018-09-28T18:41:59.629Z,18.80
2018-09-28T18:44:28.376Z,18.80
2018-09-28T18:46:57.223Z,18.80
2018-09-28T18:49:26.203Z,18.70
2018-09-28T18:51:54.888Z,18.50
2018-09-28T18:54:24.118Z,18.40
2018-09-28T18:56:52.852Z,18.40
2018-09-28T18:59:21.707Z,18.40
2018-09-28T19:01:50.579Z,18.30
2018-09-28T19:04:19.836Z,18.20
2018-09-28T19:06:48.461Z,18.10
2018-09-28T19:09:17.136Z,17.60
2018-09-28T19:11:45.915Z,18.10
2018-09-28T19:14:15.182Z,18.00
2018-09-28T19:16:43.934Z,17.90
2018-09-28T19:19:12.582Z,17.80
2018-09-28T19:21:41.371Z,17.90
2018-09-28T19:24:10.160Z,17.80
2018-09-28T19:26:38.795Z,17.80
2018-09-28T19:29:07.495Z,17.70
2018-09-28T19:31:36.240Z,17.70
2018-09-28T19:34:04.934Z,17.70
2018-09-28T19:36:33.909Z,17.80
2018-09-28T19:39:04.662Z,17.90
2018-09-28T19:41:33.520Z,18.10
2018-09-28T19:44:02.247Z,18.10
2018-09-28T19:46:30.991Z,18.20
2018-09-28T19:48:59.673Z,18.10
2018-09-28T19:51:28.345Z,18.00
2018-09-28T19:53:57.242Z,18.00
2018-09-28T19:56:25.976Z,17.80
2018-09-28T19:58:57.078Z,17.80
2018-09-28T20:01:25.784Z,17.80
2018-09-28T20:03:54.576Z,17.70
2018-09-28T20:06:23.400Z,17.70
2018-09-28T20:08:52.187Z,17.70
2018-09-28T20:11:21.061Z,17.60
2018-09-28T20:13:59.934Z,17.50
2018-09-28T20:16:28.574Z,17.40
2018-09-28T20:18:58.631Z,17.40
2018-09-28T20:21:27.379Z,17.10
2018-09-28T20:23:56.146Z,17.10
2018-09-28T20:26:27.676Z,17.00
2018-09-28T20:28:56.357Z,16.90
2018-09-28T20:31:26.352Z,17.00
2018-09-28T20:33:55.059Z,17.10
2018-09-28T20:36:23.901Z,17.10
2018-09-28T20:38:52.813Z,16.90
2018-09-28T20:41:21.668Z,16.50
2018-09-28T20:43:50.595Z,16.40
2018-09-28T20:46:19.535Z,16.40
2018-09-28T20:48:48.553Z,16.50
2018-09-28T20:51:17.285Z,16.60
2018-09-28T20:53:47.436Z,16.40
2018-09-28T20:56:16.147Z,16.50
2018-09-28T20:58:44.809Z,15.90
2018-09-28T21:01:13.696Z,16.40
2018-09-28T21:03:42.497Z,16.30
2018-09-28T21:06:11.143Z,16.30
2018-09-28T21:08:39.951Z,16.30
2018-09-28T21:11:08.619Z,16.30
2018-09-28T21:13:37.373Z,16.20
2018-09-28T21:16:06.108Z,16.00
2018-09-28T21:18:34.929Z,16.10
2018-09-28T21:21:03.708Z,16.20
2018-09-28T21:23:32.462Z,16.20
2018-09-28T21:26:01.162Z,14.40
2018-09-28T21:28:29.870Z,15.80
2018-09-28T21:30:58.507Z,15.80
2018-09-28T21:33:27.222Z,15.60
2018-09-28T21:35:57.540Z,15.50
2018-09-28T21:38:26.338Z,15.30
2018-09-28T21:40:56.924Z,15.20
2018-09-28T21:43:25.665Z,15.20
2018-09-28T21:45:56.113Z,15.40
2018-09-28T21:48:24.855Z,15.40
2018-09-28T21:50:53.965Z,14.70
2018-09-28T21:53:22.695Z,15.40
2018-09-28T21:55:51.461Z,15.30
2018-09-28T21:58:20.462Z,15.20
2018-09-28T22:00:55.222Z,15.10
2018-09-28T22:03:24.096Z,15.10
2018-09-28T22:05:53.016Z,15.20
2018-09-28T22:08:21.755Z,15.20
2018-09-28T22:10:50.706Z,15.10
2018-09-28T22:13:19.440Z,15.10
2018-09-28T22:15:50.209Z,15.20
2018-09-28T22:18:18.936Z,15.10
2018-09-28T22:20:47.649Z,15.00
2018-09-28T22:23:16.327Z,14.80
2018-09-28T22:25:44.998Z,14.70
2018-09-28T22:28:16.052Z,14.80
2018-09-28T22:30:44.715Z,14.90
2018-09-28T22:33:13.491Z,14.90
2018-09-28T22:35:42.296Z,14.80
2018-09-28T22:38:11.017Z,14.80
2018-09-28T22:40:39.722Z,14.90
2018-09-28T22:43:08.661Z,13.60
2018-09-28T22:45:37.326Z,14.60
2018-09-28T22:48:06.156Z,14.60
2018-09-28T22:50:35.097Z,14.80
2018-09-28T22:53:03.697Z,15.00
2018-09-28T22:55:32.403Z,15.90
2018-09-28T22:58:01.090Z,15.20
2018-09-28T23:00:29.767Z,15.20
2018-09-28T23:02:58.500Z,14.80
2018-09-28T23:05:28.879Z,14.80
2018-09-28T23:07:57.607Z,14.90
2018-09-28T23:10:26.319Z,15.00
2018-09-28T23:12:55.062Z,15.10
2018-09-28T23:15:23.713Z,15.00
2018-09-28T23:17:52.371Z,15.10
2018-09-28T23:20:21.136Z,15.00
2018-09-28T23:22:49.755Z,15.00
2018-09-28T23:25:18.573Z,15.00
2018-09-28T23:27:47.882Z,14.90
2018-09-28T23:30:16.548Z,14.90
2018-09-28T23:32:45.176Z,14.90
2018-09-28T23:35:13.854Z,14.90
2018-09-28T23:37:42.575Z,12.70
2018-09-28T23:40:12.398Z,14.80
2018-09-28T23:42:41.290Z,14.80
2018-09-28T23:45:10.021Z,14.80
2018-09-28T23:47:38.823Z,14.90
2018-09-28T23:50:07.775Z,14.90
2018-09-28T23:52:36.349Z,14.90
2018-09-28T23:55:05.151Z,14.80
2018-09-28T23:57:33.832Z,14.70
